sensor_id;sensor_type;location;lat;lon;timestamp;pressure;altitude;pressure_sealevel;temperature;humidity
76337;BME280;65157;50.082;18.178;2023-12-07T00:00:12;99293.46;;;-0.88;82.80
76337;BME280;65157;50.082;18.178;2023-12-07T00:02:59;99292.08;;;-0.82;82.83
76337;BME280;65157;50.082;18.178;2023-12-07T00:05:26;99292.08;;;-0.81;82.66
76337;BME280;65157;50.082;18.178;2023-12-07T00:07:52;99290.18;;;-0.81;82.65
76337;BME280;65157;50.082;18.178;2023-12-07T00:10:19;99296.77;;;-0.82;82.45
76337;BME280;65157;50.082;18.178;2023-12-07T00:12:46;99298.15;;;-0.84;82.26
76337;BME280;65157;50.082;18.178;2023-12-07T00:15:12;99301.08;;;-0.87;82.12
76337;BME280;65157;50.082;18.178;2023-12-07T00:17:39;99302.63;;;-0.90;82.31
76337;BME280;65157;50.082;18.178;2023-12-07T00:20:06;99308.34;;;-0.92;82.22
76337;BME280;65157;50.082;18.178;2023-12-07T00:22:33;99308.49;;;-0.96;82.18
76337;BME280;65157;50.082;18.178;2023-12-07T00:25:01;99311.27;;;-0.97;82.41
76337;BME280;65157;50.082;18.178;2023-12-07T00:27:35;99314.55;;;-0.95;82.33
76337;BME280;65157;50.082;18.178;2023-12-07T00:30:02;99307.09;;;-0.98;82.31
76337;BME280;65157;50.082;18.178;2023-12-07T00:32:29;99309.88;;;-0.98;82.47
76337;BME280;65157;50.082;18.178;2023-12-07T00:34:55;99307.27;;;-0.98;82.65
76337;BME280;65157;50.082;18.178;2023-12-07T00:37:22;99308.65;;;-0.98;82.39
76337;BME280;65157;50.082;18.178;2023-12-07T00:39:48;99305.52;;;-1.01;82.17
76337;BME280;65157;50.082;18.178;2023-12-07T00:42:15;99304.30;;;-1.04;82.13
76337;BME280;65157;50.082;18.178;2023-12-07T00:44:42;99306.54;;;-1.05;82.39
76337;BME280;65157;50.082;18.178;2023-12-07T00:47:09;99311.38;;;-1.06;82.35
76337;BME280;65157;50.082;18.178;2023-12-07T00:49:39;99318.48;;;-1.05;82.55
76337;BME280;65157;50.082;18.178;2023-12-07T00:52:06;99317.44;;;-1.07;82.55
76337;BME280;65157;50.082;18.178;2023-12-07T00:54:32;99316.41;;;-1.06;82.81
76337;BME280;65157;50.082;18.178;2023-12-07T00:56:59;99314.52;;;-1.02;82.82
76337;BME280;65157;50.082;18.178;2023-12-07T00:59:25;99314.88;;;-1.03;82.60
76337;BME280;65157;50.082;18.178;2023-12-07T01:01:53;99320.04;;;-1.07;82.42
76337;BME280;65157;50.082;18.178;2023-12-07T01:04:19;99322.48;;;-1.05;82.32
76337;BME280;65157;50.082;18.178;2023-12-07T01:06:46;99324.91;;;-1.02;82.50
76337;BME280;65157;50.082;18.178;2023-12-07T01:09:12;99324.73;;;-1.03;82.23
76337;BME280;65157;50.082;18.178;2023-12-07T01:11:39;99331.12;;;-1.08;82.06
76337;BME280;65157;50.082;18.178;2023-12-07T01:14:08;99332.46;;;-1.16;81.89
76337;BME280;65157;50.082;18.178;2023-12-07T01:16:34;99335.70;;;-1.26;81.89
76337;BME280;65157;50.082;18.178;2023-12-07T01:19:01;99336.52;;;-1.32;82.12
76337;BME280;65157;50.082;18.178;2023-12-07T01:21:27;99335.09;;;-1.38;82.22
76337;BME280;65157;50.082;18.178;2023-12-07T01:23:54;99332.45;;;-1.46;82.06
76337;BME280;65157;50.082;18.178;2023-12-07T01:26:21;99340.19;;;-1.50;82.36
76337;BME280;65157;50.082;18.178;2023-12-07T01:28:47;99341.20;;;-1.55;82.31
76337;BME280;65157;50.082;18.178;2023-12-07T01:31:14;99344.13;;;-1.56;82.78
76337;BME280;65157;50.082;18.178;2023-12-07T01:33:41;99346.73;;;-1.56;82.65
76337;BME280;65157;50.082;18.178;2023-12-07T01:36:07;99344.65;;;-1.56;82.87
76337;BME280;65157;50.082;18.178;2023-12-07T01:38:34;99347.61;;;-1.54;82.97
76337;BME280;65157;50.082;18.178;2023-12-07T01:41:01;99342.27;;;-1.52;82.85
76337;BME280;65157;50.082;18.178;2023-12-07T01:43:27;99342.46;;;-1.48;83.05
76337;BME280;65157;50.082;18.178;2023-12-07T01:45:57;99342.12;;;-1.47;83.23
76337;BME280;65157;50.082;18.178;2023-12-07T01:48:25;99343.87;;;-1.46;83.17
76337;BME280;65157;50.082;18.178;2023-12-07T01:50:54;99342.13;;;-1.44;83.24
76337;BME280;65157;50.082;18.178;2023-12-07T01:53:23;99335.06;;;-1.44;83.42
76337;BME280;65157;50.082;18.178;2023-12-07T01:55:51;99339.05;;;-1.42;83.16
76337;BME280;65157;50.082;18.178;2023-12-07T01:58:19;99335.23;;;-1.43;83.28
76337;BME280;65157;50.082;18.178;2023-12-07T02:00:46;99339.55;;;-1.44;83.22
76337;BME280;65157;50.082;18.178;2023-12-07T02:03:14;99341.11;;;-1.42;83.27
76337;BME280;65157;50.082;18.178;2023-12-07T02:05:46;99335.79;;;-1.36;83.37
76337;BME280;65157;50.082;18.178;2023-12-07T02:08:14;99341.20;;;-1.31;83.13
76337;BME280;65157;50.082;18.178;2023-12-07T02:10:40;99345.91;;;-1.25;83.20
76337;BME280;65157;50.082;18.178;2023-12-07T02:13:07;99345.60;;;-1.19;82.89
76337;BME280;65157;50.082;18.178;2023-12-07T02:15:36;99339.39;;;-1.14;82.93
76337;BME280;65157;50.082;18.178;2023-12-07T02:18:38;99337.52;;;-1.09;82.77
76337;BME280;65157;50.082;18.178;2023-12-07T02:21:06;99341.00;;;-1.06;82.69
76337;BME280;65157;50.082;18.178;2023-12-07T02:23:35;99344.83;;;-1.03;82.72
76337;BME280;65157;50.082;18.178;2023-12-07T02:29:06;99342.94;;;-0.98;82.42
76337;BME280;65157;50.082;18.178;2023-12-07T02:31:33;99348.49;;;-0.99;82.49
76337;BME280;65157;50.082;18.178;2023-12-07T02:33:59;99349.16;;;-1.01;82.16
76337;BME280;65157;50.082;18.178;2023-12-07T02:36:27;99354.89;;;-1.01;82.27
76337;BME280;65157;50.082;18.178;2023-12-07T02:38:59;99357.13;;;-1.03;82.23
76337;BME280;65157;50.082;18.178;2023-12-07T02:41:28;99358.66;;;-1.05;82.17
76337;BME280;65157;50.082;18.178;2023-12-07T02:43:56;99358.65;;;-1.07;82.42
76337;BME280;65157;50.082;18.178;2023-12-07T02:46:24;99368.34;;;-1.10;81.85
76337;BME280;65157;50.082;18.178;2023-12-07T02:48:50;99369.71;;;-1.13;82.09
76337;BME280;65157;50.082;18.178;2023-12-07T02:51:17;99371.59;;;-1.16;82.03
76337;BME280;65157;50.082;18.178;2023-12-07T02:53:46;99370.02;;;-1.18;82.23
76337;BME280;65157;50.082;18.178;2023-12-07T02:56:13;99370.02;;;-1.19;82.12
76337;BME280;65157;50.082;18.178;2023-12-07T02:58:40;99372.44;;;-1.19;81.94
76337;BME280;65157;50.082;18.178;2023-12-07T03:01:06;99377.96;;;-1.23;81.65
76337;BME280;65157;50.082;18.178;2023-12-07T03:03:33;99380.85;;;-1.30;81.63
76337;BME280;65157;50.082;18.178;2023-12-07T03:06:00;99385.67;;;-1.32;81.98
76337;BME280;65157;50.082;18.178;2023-12-07T03:08:27;99386.73;;;-1.29;81.96
76337;BME280;65157;50.082;18.178;2023-12-07T03:10:53;99384.52;;;-1.25;82.21
76337;BME280;65157;50.082;18.178;2023-12-07T03:13:20;99383.70;;;-1.21;81.88
76337;BME280;65157;50.082;18.178;2023-12-07T03:15:47;99383.71;;;-1.16;82.15
76337;BME280;65157;50.082;18.178;2023-12-07T03:18:15;99384.63;;;-1.09;82.21
76337;BME280;65157;50.082;18.178;2023-12-07T03:20:42;99377.38;;;-1.06;82.22
76337;BME280;65157;50.082;18.178;2023-12-07T03:23:09;99376.70;;;-1.04;82.10
76337;BME280;65157;50.082;18.178;2023-12-07T03:25:35;99368.57;;;-1.02;81.99
76337;BME280;65157;50.082;18.178;2023-12-07T03:28:03;99376.88;;;-1.02;81.89
76337;BME280;65157;50.082;18.178;2023-12-07T03:30:29;99377.92;;;-1.02;82.09
76337;BME280;65157;50.082;18.178;2023-12-07T03:32:56;99382.95;;;-1.02;81.99
76337;BME280;65157;50.082;18.178;2023-12-07T03:35:22;99381.02;;;-1.04;81.88
76337;BME280;65157;50.082;18.178;2023-12-07T03:37:50;99389.70;;;-1.00;82.05
76337;BME280;65157;50.082;18.178;2023-12-07T03:40:17;99393.17;;;-0.98;81.76
76337;BME280;65157;50.082;18.178;2023-12-07T03:42:43;99395.98;;;-0.95;82.03
76337;BME280;65157;50.082;18.178;2023-12-07T03:45:10;99396.34;;;-0.92;81.87
76337;BME280;65157;50.082;18.178;2023-12-07T03:47:36;99405.20;;;-0.90;81.72
76337;BME280;65157;50.082;18.178;2023-12-07T03:50:03;99405.52;;;-0.92;81.67
76337;BME280;65157;50.082;18.178;2023-12-07T03:52:30;99407.23;;;-0.92;81.73
76337;BME280;65157;50.082;18.178;2023-12-07T03:54:56;99410.88;;;-0.94;81.42
76337;BME280;65157;50.082;18.178;2023-12-07T03:57:23;99415.72;;;-0.96;81.52
76337;BME280;65157;50.082;18.178;2023-12-07T03:59:51;99416.59;;;-0.96;81.60
76337;BME280;65157;50.082;18.178;2023-12-07T04:02:17;99419.52;;;-0.96;81.59
76337;BME280;65157;50.082;18.178;2023-12-07T04:04:44;99418.83;;;-0.97;81.41
76337;BME280;65157;50.082;18.178;2023-12-07T04:07:11;99423.84;;;-0.99;81.50
76337;BME280;65157;50.082;18.178;2023-12-07T04:09:37;99427.98;;;-0.98;81.54
76337;BME280;65157;50.082;18.178;2023-12-07T04:12:04;99433.20;;;-0.99;81.56
76337;BME280;65157;50.082;18.178;2023-12-07T04:14:31;99436.83;;;-0.99;81.66
76337;BME280;65157;50.082;18.178;2023-12-07T04:16:58;99437.84;;;-1.03;81.34
76337;BME280;65157;50.082;18.178;2023-12-07T04:19:24;99434.52;;;-1.06;81.41
76337;BME280;65157;50.082;18.178;2023-12-07T04:21:51;99435.73;;;-1.07;81.63
76337;BME280;65157;50.082;18.178;2023-12-07T04:24:17;99432.09;;;-1.10;81.54
76337;BME280;65157;50.082;18.178;2023-12-07T04:26:44;99434.70;;;-1.07;81.86
76337;BME280;65157;50.082;18.178;2023-12-07T04:29:10;99438.00;;;-1.06;81.61
76337;BME280;65157;50.082;18.178;2023-12-07T04:31:37;99439.02;;;-1.06;81.64
76337;BME280;65157;50.082;18.178;2023-12-07T04:34:04;99438.50;;;-1.07;81.48
76337;BME280;65157;50.082;18.178;2023-12-07T04:36:30;99436.08;;;-1.08;81.63
76337;BME280;65157;50.082;18.178;2023-12-07T04:38:57;99441.74;;;-1.14;81.46
76337;BME280;65157;50.082;18.178;2023-12-07T04:41:23;99445.70;;;-1.19;81.42
76337;BME280;65157;50.082;18.178;2023-12-07T04:43:50;99447.55;;;-1.25;81.39
76337;BME280;65157;50.082;18.178;2023-12-07T04:46:17;99450.64;;;-1.29;81.67
76337;BME280;65157;50.082;18.178;2023-12-07T04:48:43;99451.45;;;-1.35;81.52
76337;BME280;65157;50.082;18.178;2023-12-07T04:51:11;99456.64;;;-1.34;81.66
76337;BME280;65157;50.082;18.178;2023-12-07T04:53:38;99455.90;;;-1.40;81.84
76337;BME280;65157;50.082;18.178;2023-12-07T04:56:05;99458.65;;;-1.43;81.94
76337;BME280;65157;50.082;18.178;2023-12-07T04:58:31;99463.13;;;-1.44;82.09
76337;BME280;65157;50.082;18.178;2023-12-07T05:00:58;99468.84;;;-1.44;82.20
76337;BME280;65157;50.082;18.178;2023-12-07T05:03:24;99466.98;;;-1.41;82.24
76337;BME280;65157;50.082;18.178;2023-12-07T05:05:51;99467.52;;;-1.37;82.28
76337;BME280;65157;50.082;18.178;2023-12-07T05:08:18;99471.20;;;-1.33;82.41
76337;BME280;65157;50.082;18.178;2023-12-07T05:10:44;99465.88;;;-1.28;82.40
76337;BME280;65157;50.082;18.178;2023-12-07T05:13:11;99471.81;;;-1.22;82.34
76337;BME280;65157;50.082;18.178;2023-12-07T05:15:37;99474.45;;;-1.17;82.42
76337;BME280;65157;50.082;18.178;2023-12-07T05:18:04;99472.58;;;-1.15;82.17
76337;BME280;65157;50.082;18.178;2023-12-07T05:20:31;99475.49;;;-1.16;81.97
76337;BME280;65157;50.082;18.178;2023-12-07T05:22:57;99476.33;;;-1.20;82.11
76337;BME280;65157;50.082;18.178;2023-12-07T05:25:24;99483.95;;;-1.20;82.10
76337;BME280;65157;50.082;18.178;2023-12-07T05:27:50;99483.96;;;-1.19;82.44
76337;BME280;65157;50.082;18.178;2023-12-07T05:30:17;99488.30;;;-1.18;82.35
76337;BME280;65157;50.082;18.178;2023-12-07T05:32:44;99489.70;;;-1.17;82.02
76337;BME280;65157;50.082;18.178;2023-12-07T05:35:11;99490.74;;;-1.16;82.10
76337;BME280;65157;50.082;18.178;2023-12-07T05:37:38;99492.80;;;-1.19;81.90
76337;BME280;65157;50.082;18.178;2023-12-07T05:40:05;99493.80;;;-1.22;82.11
76337;BME280;65157;50.082;18.178;2023-12-07T05:42:33;99499.70;;;-1.23;82.21
76337;BME280;65157;50.082;18.178;2023-12-07T05:45:01;99494.81;;;-1.25;82.05
76337;BME280;65157;50.082;18.178;2023-12-07T05:47:27;99499.89;;;-1.21;82.34
76337;BME280;65157;50.082;18.178;2023-12-07T05:49:54;99505.44;;;-1.19;82.17
76337;BME280;65157;50.082;18.178;2023-12-07T05:52:20;99500.38;;;-1.23;82.09
76337;BME280;65157;50.082;18.178;2023-12-07T05:54:47;99508.36;;;-1.23;82.31
76337;BME280;65157;50.082;18.178;2023-12-07T05:57:14;99508.84;;;-1.25;82.11
76337;BME280;65157;50.082;18.178;2023-12-07T05:59:41;99510.05;;;-1.25;82.46
76337;BME280;65157;50.082;18.178;2023-12-07T06:02:07;99514.58;;;-1.22;82.33
76337;BME280;65157;50.082;18.178;2023-12-07T06:04:34;99516.34;;;-1.20;82.46
76337;BME280;65157;50.082;18.178;2023-12-07T06:07:00;99520.66;;;-1.21;82.46
76337;BME280;65157;50.082;18.178;2023-12-07T06:09:27;99524.45;;;-1.22;82.45
76337;BME280;65157;50.082;18.178;2023-12-07T06:11:53;99526.68;;;-1.25;82.62
76337;BME280;65157;50.082;18.178;2023-12-07T06:14:20;99533.55;;;-1.30;82.63
76337;BME280;65157;50.082;18.178;2023-12-07T06:16:47;99537.31;;;-1.35;82.58
76337;BME280;65157;50.082;18.178;2023-12-07T06:19:14;99541.98;;;-1.36;82.66
76337;BME280;65157;50.082;18.178;2023-12-07T06:21:41;99537.29;;;-1.38;83.05
76337;BME280;65157;50.082;18.178;2023-12-07T06:24:07;99540.95;;;-1.35;83.16
76337;BME280;65157;50.082;18.178;2023-12-07T06:26:34;99542.00;;;-1.34;82.95
76337;BME280;65157;50.082;18.178;2023-12-07T06:29:00;99538.58;;;-1.30;83.14
76337;BME280;65157;50.082;18.178;2023-12-07T06:31:28;99540.00;;;-1.26;83.00
76337;BME280;65157;50.082;18.178;2023-12-07T06:33:55;99537.42;;;-1.24;83.26
76337;BME280;65157;50.082;18.178;2023-12-07T06:36:23;99541.22;;;-1.25;83.18
76337;BME280;65157;50.082;18.178;2023-12-07T06:38:49;99543.95;;;-1.28;83.12
76337;BME280;65157;50.082;18.178;2023-12-07T06:41:16;99547.91;;;-1.32;83.02
76337;BME280;65157;50.082;18.178;2023-12-07T06:43:42;99554.83;;;-1.33;83.12
76337;BME280;65157;50.082;18.178;2023-12-07T06:46:11;99552.60;;;-1.30;83.30
76337;BME280;65157;50.082;18.178;2023-12-07T06:48:38;99555.73;;;-1.27;83.11
76337;BME280;65157;50.082;18.178;2023-12-07T06:51:04;99556.95;;;-1.27;83.30
76337;BME280;65157;50.082;18.178;2023-12-07T06:53:33;99556.12;;;-1.25;83.36
76337;BME280;65157;50.082;18.178;2023-12-07T06:56:00;99558.01;;;-1.26;83.07
76337;BME280;65157;50.082;18.178;2023-12-07T06:58:27;99557.98;;;-1.29;83.19
76337;BME280;65157;50.082;18.178;2023-12-07T07:00:53;99561.22;;;-1.35;83.31
76337;BME280;65157;50.082;18.178;2023-12-07T07:03:20;99559.42;;;-1.40;83.29
76337;BME280;65157;50.082;18.178;2023-12-07T07:05:46;99567.22;;;-1.39;83.53
76337;BME280;65157;50.082;18.178;2023-12-07T07:08:13;99569.66;;;-1.36;83.57
76337;BME280;65157;50.082;18.178;2023-12-07T07:10:39;99575.02;;;-1.38;83.51
76337;BME280;65157;50.082;18.178;2023-12-07T07:13:06;99579.55;;;-1.36;83.64
76337;BME280;65157;50.082;18.178;2023-12-07T07:15:33;99581.13;;;-1.34;83.81
76337;BME280;65157;50.082;18.178;2023-12-07T07:18:00;99580.09;;;-1.34;83.62
76337;BME280;65157;50.082;18.178;2023-12-07T07:20:27;99580.97;;;-1.32;83.86
76337;BME280;65157;50.082;18.178;2023-12-07T07:22:55;99579.59;;;-1.32;83.80
76337;BME280;65157;50.082;18.178;2023-12-07T07:25:22;99576.84;;;-1.31;83.81
76337;BME280;65157;50.082;18.178;2023-12-07T07:27:48;99573.41;;;-1.28;83.93
76337;BME280;65157;50.082;18.178;2023-12-07T07:30:15;99575.21;;;-1.20;83.89
76337;BME280;65157;50.082;18.178;2023-12-07T07:32:42;99572.86;;;-1.13;83.71
76337;BME280;65157;50.082;18.178;2023-12-07T07:35:08;99569.81;;;-1.05;83.90
76337;BME280;65157;50.082;18.178;2023-12-07T07:37:35;99572.49;;;-0.95;83.77
76337;BME280;65157;50.082;18.178;2023-12-07T07:40:02;99575.52;;;-0.87;83.49
76337;BME280;65157;50.082;18.178;2023-12-07T07:42:29;99578.16;;;-0.81;83.36
76337;BME280;65157;50.082;18.178;2023-12-07T07:44:57;99581.32;;;-0.77;83.37
76337;BME280;65157;50.082;18.178;2023-12-07T07:47:24;99582.84;;;-0.81;82.90
76337;BME280;65157;50.082;18.178;2023-12-07T07:49:51;99586.45;;;-0.84;83.23
76337;BME280;65157;50.082;18.178;2023-12-07T07:52:17;99589.59;;;-0.82;83.21
76337;BME280;65157;50.082;18.178;2023-12-07T07:54:46;99594.11;;;-0.80;83.06
76337;BME280;65157;50.082;18.178;2023-12-07T07:57:13;99594.48;;;-0.79;83.13
76337;BME280;65157;50.082;18.178;2023-12-07T07:59:39;99598.64;;;-0.78;83.12
76337;BME280;65157;50.082;18.178;2023-12-07T08:02:06;99601.25;;;-0.77;83.05
76337;BME280;65157;50.082;18.178;2023-12-07T08:04:32;99601.98;;;-0.74;83.40
76337;BME280;65157;50.082;18.178;2023-12-07T08:07:01;99601.66;;;-0.69;83.01
76337;BME280;65157;50.082;18.178;2023-12-07T08:09:28;99602.55;;;-0.67;82.97
76337;BME280;65157;50.082;18.178;2023-12-07T08:11:55;99591.09;;;-0.70;83.13
76337;BME280;65157;50.082;18.178;2023-12-07T08:14:21;99598.45;;;-0.61;83.15
76337;BME280;65157;50.082;18.178;2023-12-07T08:16:48;99599.84;;;-0.59;82.94
76337;BME280;65157;50.082;18.178;2023-12-07T08:19:16;99600.89;;;-0.56;82.93
76337;BME280;65157;50.082;18.178;2023-12-07T08:21:43;99603.34;;;-0.53;83.14
76337;BME280;65157;50.082;18.178;2023-12-07T08:24:09;99605.96;;;-0.51;83.07
76337;BME280;65157;50.082;18.178;2023-12-07T08:26:37;99612.95;;;-0.45;83.03
76337;BME280;65157;50.082;18.178;2023-12-07T08:29:04;99616.61;;;-0.41;82.88
76337;BME280;65157;50.082;18.178;2023-12-07T08:31:31;99615.27;;;-0.38;82.93
76337;BME280;65157;50.082;18.178;2023-12-07T08:33:57;99615.45;;;-0.34;82.99
76337;BME280;65157;50.082;18.178;2023-12-07T08:36:24;99616.52;;;-0.30;82.76
76337;BME280;65157;50.082;18.178;2023-12-07T08:38:51;99619.30;;;-0.28;82.70
76337;BME280;65157;50.082;18.178;2023-12-07T08:41:18;99620.37;;;-0.26;82.63
76337;BME280;65157;50.082;18.178;2023-12-07T08:43:44;99624.71;;;-0.24;82.64
76337;BME280;65157;50.082;18.178;2023-12-07T08:46:11;99625.25;;;-0.24;82.56
76337;BME280;65157;50.082;18.178;2023-12-07T08:48:37;99629.77;;;-0.23;82.41
76337;BME280;65157;50.082;18.178;2023-12-07T08:51:06;99630.45;;;-0.22;82.43
76337;BME280;65157;50.082;18.178;2023-12-07T08:53:32;99628.90;;;-0.22;82.46
76337;BME280;65157;50.082;18.178;2023-12-07T08:55:59;99632.38;;;-0.20;82.22
76337;BME280;65157;50.082;18.178;2023-12-07T08:58:26;99637.23;;;-0.20;82.25
76337;BME280;65157;50.082;18.178;2023-12-07T09:00:53;99635.86;;;-0.19;81.96
76337;BME280;65157;50.082;18.178;2023-12-07T09:03:22;99632.36;;;-0.23;82.09
76337;BME280;65157;50.082;18.178;2023-12-07T09:05:49;99638.45;;;-0.20;82.15
76337;BME280;65157;50.082;18.178;2023-12-07T09:08:15;99645.39;;;-0.21;82.19
76337;BME280;65157;50.082;18.178;2023-12-07T09:10:42;99646.07;;;-0.21;82.11
76337;BME280;65157;50.082;18.178;2023-12-07T09:13:09;99651.10;;;-0.21;82.35
76337;BME280;65157;50.082;18.178;2023-12-07T09:15:35;99650.59;;;-0.21;82.04
76337;BME280;65157;50.082;18.178;2023-12-07T09:18:02;99650.04;;;-0.24;82.26
76337;BME280;65157;50.082;18.178;2023-12-07T09:20:30;99650.05;;;-0.22;82.47
76337;BME280;65157;50.082;18.178;2023-12-07T09:22:57;99653.19;;;-0.20;82.37
76337;BME280;65157;50.082;18.178;2023-12-07T09:25:24;99653.38;;;-0.18;82.49
76337;BME280;65157;50.082;18.178;2023-12-07T09:27:51;99647.14;;;-0.17;82.15
76337;BME280;65157;50.082;18.178;2023-12-07T09:30:17;99652.55;;;-0.14;82.17
76337;BME280;65157;50.082;18.178;2023-12-07T09:32:44;99654.29;;;-0.14;82.13
76337;BME280;65157;50.082;18.178;2023-12-07T09:35:11;99650.30;;;-0.15;82.02
76337;BME280;65157;50.082;18.178;2023-12-07T09:37:37;99649.41;;;-0.16;82.16
76337;BME280;65157;50.082;18.178;2023-12-07T09:40:06;99650.11;;;-0.16;82.08
76337;BME280;65157;50.082;18.178;2023-12-07T09:42:33;99648.22;;;-0.14;82.00
76337;BME280;65157;50.082;18.178;2023-12-07T09:45:00;99650.84;;;-0.09;82.14
76337;BME280;65157;50.082;18.178;2023-12-07T09:59:53;99638.83;;;0.50;80.98
76337;BME280;65157;50.082;18.178;2023-12-07T10:02:45;99636.27;;;0.55;80.50
76337;BME280;65157;50.082;18.178;2023-12-07T10:05:34;99638.50;;;0.49;80.64
76337;BME280;65157;50.082;18.178;2023-12-07T10:08:29;99642.65;;;0.44;80.85
76337;BME280;65157;50.082;18.178;2023-12-07T10:11:20;99641.58;;;0.38;80.72
76337;BME280;65157;50.082;18.178;2023-12-07T10:14:08;99637.17;;;0.29;80.81
76337;BME280;65157;50.082;18.178;2023-12-07T10:16:56;99637.86;;;0.24;80.85
76337;BME280;65157;50.082;18.178;2023-12-07T10:19:44;99638.70;;;0.17;80.98
76337;BME280;65157;50.082;18.178;2023-12-07T10:22:31;99637.44;;;0.11;81.12
76337;BME280;65157;50.082;18.178;2023-12-07T10:25:21;99633.07;;;0.06;81.09
76337;BME280;65157;50.082;18.178;2023-12-07T10:28:10;99633.05;;;0.04;81.39
76337;BME280;65157;50.082;18.178;2023-12-07T10:30:57;99624.00;;;-0.01;81.47
76337;BME280;65157;50.082;18.178;2023-12-07T10:33:52;99633.04;;;0.01;81.45
76337;BME280;65157;50.082;18.178;2023-12-07T10:36:39;99630.45;;;0.03;81.64
76337;BME280;65157;50.082;18.178;2023-12-07T10:39:28;99631.16;;;0.06;81.61
76337;BME280;65157;50.082;18.178;2023-12-07T10:42:16;99628.21;;;0.07;81.87
76337;BME280;65157;50.082;18.178;2023-12-07T10:45:07;99623.54;;;0.09;81.76
76337;BME280;65157;50.082;18.178;2023-12-07T10:48:08;99621.13;;;0.11;81.73
76337;BME280;65157;50.082;18.178;2023-12-07T10:51:00;99624.40;;;0.10;81.64
76337;BME280;65157;50.082;18.178;2023-12-07T10:53:51;99629.46;;;0.11;81.97
76337;BME280;65157;50.082;18.178;2023-12-07T10:56:43;99625.83;;;0.11;81.81
76337;BME280;65157;50.082;18.178;2023-12-07T10:59:33;99631.73;;;0.14;81.93
76337;BME280;65157;50.082;18.178;2023-12-07T11:02:23;99627.73;;;0.15;81.97
76337;BME280;65157;50.082;18.178;2023-12-07T11:05:12;99632.23;;;0.13;81.93
76337;BME280;65157;50.082;18.178;2023-12-07T11:08:05;99629.13;;;0.13;82.22
76337;BME280;65157;50.082;18.178;2023-12-07T11:13:49;99632.80;;;0.20;81.90
76337;BME280;65157;50.082;18.178;2023-12-07T11:16:29;99637.34;;;0.26;81.98
76337;BME280;65157;50.082;18.178;2023-12-07T11:22:03;99637.70;;;0.28;81.94
76337;BME280;65157;50.082;18.178;2023-12-07T11:24:30;99635.77;;;0.26;82.06
76337;BME280;65157;50.082;18.178;2023-12-07T11:26:58;99638.20;;;0.23;82.18
76337;BME280;65157;50.082;18.178;2023-12-07T11:29:25;99636.64;;;0.24;82.33
76337;BME280;65157;50.082;18.178;2023-12-07T11:32:01;99635.61;;;0.25;82.44
76337;BME280;65157;50.082;18.178;2023-12-07T11:34:39;99630.93;;;0.28;82.32
76337;BME280;65157;50.082;18.178;2023-12-07T11:37:07;99627.63;;;0.27;82.44
76337;BME280;65157;50.082;18.178;2023-12-07T11:39:39;99627.45;;;0.27;82.35
76337;BME280;65157;50.082;18.178;2023-12-07T11:42:17;99627.30;;;0.31;82.71
76337;BME280;65157;50.082;18.178;2023-12-07T11:44:45;99632.87;;;0.33;82.56
76337;BME280;65157;50.082;18.178;2023-12-07T11:47:18;99633.05;;;0.34;82.51
76337;BME280;65157;50.082;18.178;2023-12-07T11:49:46;99633.75;;;0.35;82.33
76337;BME280;65157;50.082;18.178;2023-12-07T11:52:19;99630.98;;;0.36;82.61
76337;BME280;65157;50.082;18.178;2023-12-07T11:54:53;99631.16;;;0.40;82.30
76337;BME280;65157;50.082;18.178;2023-12-07T11:57:20;99632.38;;;0.39;82.29
76337;BME280;65157;50.082;18.178;2023-12-07T11:59:47;99634.45;;;0.39;82.37
76337;BME280;65157;50.082;18.178;2023-12-07T12:02:13;99634.77;;;0.32;82.55
76337;BME280;65157;50.082;18.178;2023-12-07T12:04:41;99635.64;;;0.29;82.55
76337;BME280;65157;50.082;18.178;2023-12-07T12:07:08;99637.52;;;0.27;82.84
76337;BME280;65157;50.082;18.178;2023-12-07T12:09:34;99634.59;;;0.30;83.09
76337;BME280;65157;50.082;18.178;2023-12-07T12:12:01;99633.56;;;0.32;82.77
76337;BME280;65157;50.082;18.178;2023-12-07T12:14:28;99632.85;;;0.28;82.51
76337;BME280;65157;50.082;18.178;2023-12-07T12:16:55;99632.12;;;0.24;82.96
76337;BME280;65157;50.082;18.178;2023-12-07T12:19:23;99628.48;;;0.25;83.11
76337;BME280;65157;50.082;18.178;2023-12-07T12:21:51;99629.02;;;0.25;83.14
76337;BME280;65157;50.082;18.178;2023-12-07T12:24:17;99631.63;;;0.27;83.18
76337;BME280;65157;50.082;18.178;2023-12-07T12:26:44;99628.87;;;0.31;83.21
76337;BME280;65157;50.082;18.178;2023-12-07T12:29:11;99627.86;;;0.37;83.28
76337;BME280;65157;50.082;18.178;2023-12-07T12:31:38;99628.89;;;0.35;82.98
76337;BME280;65157;50.082;18.178;2023-12-07T12:34:08;99627.31;;;0.33;83.07
76337;BME280;65157;50.082;18.178;2023-12-07T12:36:35;99622.81;;;0.36;83.20
76337;BME280;65157;50.082;18.178;2023-12-07T12:39:01;99617.79;;;0.39;83.40
76337;BME280;65157;50.082;18.178;2023-12-07T12:41:28;99614.51;;;0.40;83.33
76337;BME280;65157;50.082;18.178;2023-12-07T12:43:55;99621.27;;;0.42;83.42
76337;BME280;65157;50.082;18.178;2023-12-07T12:46:21;99619.20;;;0.44;83.48
76337;BME280;65157;50.082;18.178;2023-12-07T12:49:02;99618.16;;;0.45;83.45
76337;BME280;65157;50.082;18.178;2023-12-07T12:51:29;99621.79;;;0.40;83.18
76337;BME280;65157;50.082;18.178;2023-12-07T12:53:56;99626.13;;;0.38;83.39
76337;BME280;65157;50.082;18.178;2023-12-07T12:56:26;99627.81;;;0.28;83.43
76337;BME280;65157;50.082;18.178;2023-12-07T12:58:53;99626.94;;;0.27;83.74
76337;BME280;65157;50.082;18.178;2023-12-07T13:01:21;99622.59;;;0.28;83.72
76337;BME280;65157;50.082;18.178;2023-12-07T13:03:49;99624.88;;;0.31;83.49
76337;BME280;65157;50.082;18.178;2023-12-07T13:06:16;99627.64;;;0.30;83.59
76337;BME280;65157;50.082;18.178;2023-12-07T13:08:47;99625.02;;;0.25;83.68
76337;BME280;65157;50.082;18.178;2023-12-07T13:11:15;99628.86;;;0.29;83.84
76337;BME280;65157;50.082;18.178;2023-12-07T13:13:42;99635.10;;;0.30;83.88
76337;BME280;65157;50.082;18.178;2023-12-07T13:16:09;99639.46;;;0.33;83.84
76337;BME280;65157;50.082;18.178;2023-12-07T13:18:36;99638.98;;;0.38;83.84
76337;BME280;65157;50.082;18.178;2023-12-07T13:21:03;99640.38;;;0.41;83.98
76337;BME280;65157;50.082;18.178;2023-12-07T13:23:30;99641.77;;;0.43;83.80